33PN weather

Public forecast

Using degrees Fahrenheit for public forecast. Weather courtesy of forecast.io.

Closest aviation weather report (METAR) to Skepton Heliport

Closest report is Quakertown Airport, 3.8 nm (7.0 km) NE. Retrieved 2020/08/09 02:35 UTC (0 seconds ago):

KUKT 090235Z AUTO 00000KT 10SM CLR 22/22 A3016 RMK A01

Closest aviation forecast (TAF) to Skepton Heliport

Closest forecast is Lehigh Valley International Airport, 15.8 nm (29.3 km) N. Retrieved 2020-08-09 00:22 UTC (2 hours ago):

TAF KABE 082320Z 0900/0924 VRB03KT P6SM SCT045 FM090700 00000KT 5SM BR SCT003 TEMPO 0909/0912 2SM BR BKN003 FM091400 VRB03KT P6SM SCT035 FM091700 25007KT P6SM SCT040